Terminal Aerodrome Forecast
Issued by NWS

Home | Current Version | Previous Version | Text Only | Print | Product List | Glossary On
Versions: 1 2 3 4 5 6 7 8 9 10 11 12 13 14 15 16
000
FTUS41 KBTV 191741
TAFRUT
TAF
KRUT 191741Z 1918/2018 31006G15KT P6SM SCT025 OVC040
     FM200000 32006KT P6SM VCSH OVC020
     FM201100 31009G16KT P6SM OVC020
     FM201600 32011G18KT P6SM BKN040=

USA.gov is the U.S. government's official web portal to all federal, state and local government web resources and services.